Norfolk, NE

12:45 AM CDT on March 29, 2017 (GMT -0500)
West Central - Norfolk | | Change Station

Elev 1640 ft 42.04 °N, 97.45 °W | Updated 3 seconds ago

Overcast
Overcast
45.4 °F
Feels Like 44 °F
N
3.1
Wind Variable Wind from ESE
Gusts 5.0 mph

Today
High -- | Low -- °F
--% Chance of Precip.
Yesterday
High -- | Low -- °F
Precip. -- in
Pressure 30.11 in
Visibility 10.0 miles
Clouds Overcast 10000 ft
Windchill 44 °F
Dew Point 41 °F
Humidity 86%
Rainfall 0.00 in
Snow Depth Not available.
7:16 AM 7:52 PM
New Moon, 2% visible
METAR KOFK 290456Z AUTO 06004KT 10SM OVC100 08/05 A3009 RMK AO2 SLP195 T00780050 TSNO
Pressure 30.11 in
Visibility 10.0 miles
Clouds Overcast 10000 ft
Windchill 44 °F
Dew Point 41 °F
Humidity 86%
Rainfall 0.00 in
Snow Depth Not available.
7:16 AM 7:52 PM
New Moon, 2% visible
METAR KOFK 290456Z AUTO 06004KT 10SM OVC100 08/05 A3009 RMK AO2 SLP195 T00780050 TSNO

Get Severe Weather Alerts

Thanks for signing up!

Be on the lookout for a verification email in your inbox.

You'll start receiving the daily forecast at 8 AM.

×

10-Day Weather Forecast

Almanac

Astronomy

Mar. 29, 2017 Rise Set
Actual Time
Civil Twilight
Nautical Twilight
Astronomical Twilight
Moon
Length of Visible Light
Length of Day
Tomorrow will be .
, % of the Moon is Illuminated

Today's Extremes

State Highs State Lows

Community

WunderPhotos

Upload Photos

1,962,540 photos uploaded!

WunderBlog® & News

Nearby

Air Quality

  Air Quality AQ Index Pollutant
Not available.

Snow Depth

Station Depth Elevation

Earthquake Activity

City Distance Mag. Time & Date
Minimum magnitude displayed is 2.5.

Earthquake Activity

City Distance Mag. Time & Date
Minimum magnitude displayed is 2.5.

Coastal Water Temperatures

Place Temperature

Stations

Nearby Weather Stations

Station Location Temp. Windchill Dew Point Humidity Wind Precip. Elev Updated Type
                   

Watches & Warnings

There are currently no watches in effect.